Time;durP1;ratioP1;P1;durP2;ratioP2;P2;SDS_P1;SDS_P2;PMS_P1;PMS_P2;Temp;Humidity;BMP_temperature;BMP_pressure;BME280_temperature;BME280_humidity;BME280_pressure;Samples;Min_cycle;Max_cycle;Signal;HPM_P1;HPM_P2
2020/12/14 10:44:55;;;;;;;6.68;6.10;;;9.80;99.90;;;;;;10100582;29;20045;-95
2020/12/14 10:50:03;;;;;;;6.70;4.47;;;9.80;99.90;;;;;;10060334;29;20053;-96
2020/12/14 10:55:05;;;;;;;5.25;4.75;;;9.90;99.90;;;;;;10057694;29;20143;-95
2020/12/14 11:00:07;;;;;;;5.15;4.65;;;9.80;99.90;;;;;;10072826;29;20140;-94
2020/12/14 11:05:11;;;;;;;5.10;4.60;;;9.90;99.90;;;;;;10071026;29;20084;-96
2020/12/14 11:10:13;;;;;;;5.13;4.63;;;10.00;99.90;;;;;;10072268;29;20122;-96
2020/12/14 11:15:14;;;;;;;5.07;3.60;;;10.00;99.90;;;;;;10072020;29;20167;-96
2020/12/14 11:20:16;;;;;;;;;;;10.10;99.90;;;;;;10088786;29;20149;-96
2020/12/14 11:25:18;;;;;;;4.15;3.75;;;10.10;99.90;;;;;;10072767;29;19924;-96
2020/12/14 11:30:19;;;;;;;4.30;3.85;;;10.10;99.90;;;;;;10041327;29;20140;-96
2020/12/14 11:35:21;;;;;;;3.65;3.28;;;10.10;99.90;;;;;;10058255;29;20085;-96
2020/12/14 11:40:22;;;;;;;;;;;10.10;99.90;;;;;;10071466;29;20501;-96
2020/12/14 11:45:24;;;;;;;3.75;2.90;;;10.20;99.90;;;;;;10070129;29;20299;-96
2020/12/14 11:50:26;;;;;;;4.40;2.88;;;10.20;99.90;;;;;;10071204;29;20057;-96
2020/12/14 11:55:28;;;;;;;3.10;2.80;;;10.20;99.90;;;;;;10055782;29;20065;-96
2020/12/14 12:00:30;;;;;;;4.47;3.10;;;10.20;99.90;;;;;;10069925;29;20081;-96
2020/12/14 12:05:32;;;;;;;5.55;4.00;;;10.20;99.90;;;;;;10070396;29;20057;-96
2020/12/14 12:10:35;;;;;;;5.25;3.38;;;10.20;99.90;;;;;;10070533;29;20153;-96
2020/12/14 12:15:36;;;;;;;4.93;4.22;;;10.20;99.90;;;;;;10071160;29;20140;-96
2020/12/14 12:20:38;;;;;;;;;;;10.10;99.90;;;;;;10070605;29;20091;-94
2020/12/14 12:25:40;;;;;;;5.95;4.13;;;10.20;99.90;;;;;;10084373;29;20332;-96
2020/12/14 12:30:54;;;;;;;4.38;3.90;;;10.20;99.90;;;;;;10057461;29;20048;-95
2020/12/14 12:35:58;;;;;;;5.15;3.65;;;10.20;99.90;;;;;;10084369;29;20600;-95
2020/12/14 12:40:59;;;;;;;17.85;5.13;;;10.30;99.90;;;;;;10085740;29;20190;-96
2020/12/14 12:46:02;;;;;;;6.03;4.22;;;10.20;99.90;;;;;;10107066;29;20494;-96
2020/12/14 12:51:07;;;;;;;;;;;10.30;99.90;;;;;;10092228;29;20083;-96
2020/12/14 12:56:08;;;;;;;5.53;5.03;;;10.40;99.90;;;;;;10107048;29;19927;-96
2020/12/14 13:01:10;;;;;;;5.57;5.07;;;10.40;99.90;;;;;;10108199;29;20087;-96
2020/12/14 13:06:12;;;;;;;;;;;10.50;99.90;;;;;;10091969;29;20135;-95
2020/12/14 13:11:13;;;;;;;7.65;4.95;;;10.50;99.90;;;;;;10106717;29;19979;-96
2020/12/14 13:16:18;;;;;;;5.05;4.35;;;10.40;99.90;;;;;;10106676;29;20515;-95
2020/12/14 13:21:29;;;;;;;4.25;3.85;;;10.50;99.90;;;;;;10111941;29;20065;-95
2020/12/14 13:26:33;;;;;;;4.45;4.00;;;10.50;99.90;;;;;;10097185;29;20538;-94
2020/12/14 13:31:36;;;;;;;8.43;3.55;;;10.60;99.90;;;;;;10072044;29;20057;-96
2020/12/14 13:36:40;;;;;;;5.28;3.28;;;10.50;99.90;;;;;;10122555;29;20065;-92
2020/12/14 13:41:42;;;;;;;6.53;3.75;;;10.60;99.90;;;;;;10103428;29;20394;-95
2020/12/14 13:46:44;;;;;;;4.60;4.18;;;10.60;99.90;;;;;;10103442;29;20109;-94
2020/12/14 13:51:46;;;;;;;6.97;4.20;;;10.60;99.90;;;;;;10058132;29;20069;-94
2020/12/14 13:56:48;;;;;;;5.28;4.18;;;10.50;99.90;;;;;;10059234;29;20056;-94
2020/12/14 14:01:50;;;;;;;8.05;4.35;;;10.50;99.90;;;;;;10033596;29;20065;-94
2020/12/14 14:06:52;;;;;;;11.13;4.00;;;10.40;99.90;;;;;;10049503;29;20137;-94
2020/12/14 14:11:53;;;;;;;3.95;3.53;;;10.50;99.90;;;;;;10072613;29;20519;-94
2020/12/14 14:16:57;;;;;;;6.43;3.50;;;10.50;99.90;;;;;;10042188;29;20057;-93
2020/12/14 14:21:59;;;;;;;5.15;3.47;;;10.30;99.90;;;;;;10073356;29;20067;-93
2020/12/14 14:27:00;;;;;;;4.10;3.58;;;10.50;99.90;;;;;;10042516;29;20140;-93
2020/12/14 14:32:03;;;;;;;6.95;3.60;;;10.30;99.90;;;;;;10057011;29;20140;-93
2020/12/14 14:37:07;;;;;;;6.22;3.75;;;10.40;99.90;;;;;;10086778;29;20057;-95
2020/12/14 14:42:09;;;;;;;5.00;3.00;;;10.40;99.90;;;;;;10071201;29;20106;-93
2020/12/14 14:47:10;;;;;;;3.15;2.90;;;10.40;99.90;;;;;;10071205;29;20076;-95
2020/12/14 14:52:12;;;;;;;6.35;3.67;;;10.30;99.90;;;;;;10052760;29;20069;-93
2020/12/14 14:57:14;;;;;;;11.13;3.30;;;10.30;99.90;;;;;;10024210;24;20403;-91
2020/12/14 15:02:15;;;;;;;6.25;3.25;;;10.20;99.90;;;;;;9980312;29;20408;-91
2020/12/14 15:07:19;;;;;;;4.20;3.10;;;10.20;99.90;;;;;;9981121;29;20075;-92
2020/12/14 15:12:20;;;;;;;4.45;3.67;;;10.20;99.90;;;;;;9966554;29;20076;-92
2020/12/14 15:17:22;;;;;;;4.20;2.95;;;10.00;99.90;;;;;;9995306;29;20058;-92
2020/12/14 15:22:24;;;;;;;7.40;3.80;;;10.20;99.90;;;;;;9965069;29;20062;-91
2020/12/14 15:27:25;;;;;;;3.17;2.95;;;10.10;99.90;;;;;;9980852;29;20058;-93
2020/12/14 15:32:27;;;;;;;5.18;3.35;;;10.00;99.90;;;;;;9979968;29;20125;-92
2020/12/14 15:37:29;;;;;;;5.85;3.55;;;10.10;99.90;;;;;;9965098;29;20467;-91
2020/12/14 15:42:30;;;;;;;5.28;3.30;;;10.10;99.90;;;;;;9994560;29;20053;-92
2020/12/14 15:47:32;;;;;;;6.68;3.53;;;10.10;99.90;;;;;;9976550;29;20133;-92
2020/12/14 15:52:33;;;;;;;6.40;3.72;;;10.00;99.90;;;;;;9963634;29;20212;-92
2020/12/14 15:57:35;;;;;;;10.88;3.80;;;10.20;99.90;;;;;;9964430;29;20145;-93
2020/12/14 16:02:36;;;;;;;3.85;3.47;;;10.00;99.90;;;;;;9963926;29;20137;-92
2020/12/14 16:07:38;;;;;;;;;;;9.90;99.90;;;;;;9978899;29;20050;-92
2020/12/14 16:12:39;;;;;;;7.45;3.13;;;10.00;99.90;;;;;;9993496;29;19924;-92
2020/12/14 16:17:41;;;;;;;;;;;10.00;99.90;;;;;;9993311;29;20418;-92
2020/12/14 16:22:44;;;;;;;5.22;3.67;;;9.90;99.90;;;;;;9994218;29;19971;-96
2020/12/14 16:27:46;;;;;;;5.25;3.47;;;10.00;99.90;;;;;;10023853;29;20584;-91
2020/12/14 16:32:48;;;;;;;;;;;9.80;99.90;;;;;;9992482;29;20140;-92
2020/12/14 16:37:51;;;;;;;5.80;3.72;;;9.90;99.90;;;;;;9992693;29;19978;-93
2020/12/14 16:42:53;;;;;;;8.77;5.15;;;9.90;99.90;;;;;;9975118;29;20058;-92
2020/12/14 16:47:56;;;;;;;3.92;3.20;;;9.80;99.90;;;;;;9969441;29;20063;-92
2020/12/14 16:52:58;;;;;;;6.13;3.72;;;10.00;99.90;;;;;;9969971;29;20498;-92
2020/12/14 16:57:59;;;;;;;;;;;9.80;99.90;;;;;;9955448;29;20086;-92
2020/12/14 17:03:05;;;;;;;3.30;2.75;;;9.70;99.90;;;;;;9985074;29;19932;-93
2020/12/14 17:08:07;;;;;;;4.30;3.25;;;9.40;99.90;;;;;;9955238;29;20114;-92
2020/12/14 17:13:08;;;;;;;7.22;3.28;;;9.20;99.90;;;;;;9969138;29;20120;-93
2020/12/14 17:18:11;;;;;;;;;;;8.90;99.90;;;;;;9968251;29;20090;-93
2020/12/14 17:23:17;;;;;;;8.73;4.28;;;8.80;99.90;;;;;;9953724;29;20008;-92
2020/12/14 17:28:20;;;;;;;7.38;4.00;;;8.70;99.90;;;;;;9954625;29;20090;-92
2020/12/14 17:33:22;;;;;;;11.85;4.53;;;8.70;99.90;;;;;;9968529;29;20559;-95
2020/12/14 17:38:24;;;;;;;8.65;5.10;;;8.60;99.90;;;;;;9968391;29;20081;-93
2020/12/14 17:43:26;;;;;;;8.35;6.75;;;8.50;99.90;;;;;;10005984;29;20512;-93
2020/12/14 17:48:30;;;;;;;11.40;8.00;;;8.50;99.90;;;;;;10006239;29;20062;-92
2020/12/14 17:53:32;;;;;;;10.13;6.88;;;8.40;99.90;;;;;;10021738;29;20066;-92
2020/12/14 17:58:36;;;;;;;12.20;8.60;;;8.30;99.90;;;;;;10005120;29;20073;-92
2020/12/14 18:03:41;;;;;;;10.73;7.25;;;8.40;99.90;;;;;;10004237;29;20088;-92
2020/12/14 18:08:47;;;;;;;9.45;6.88;;;8.10;99.90;;;;;;9990608;29;20149;-95
2020/12/14 18:13:59;;;;;;;9.15;7.85;;;8.20;99.90;;;;;;9955348;29;20065;-95
2020/12/14 18:19:04;;;;;;;13.20;8.45;;;8.30;99.90;;;;;;9960065;29;20165;-95
2020/12/14 18:24:06;;;;;;;12.32;10.40;;;8.30;99.90;;;;;;9959199;29;20063;-92
2020/12/14 18:29:11;;;;;;;12.23;10.38;;;8.20;99.90;;;;;;9959909;29;20137;-92
2020/12/14 21:26:41;;;;;;;13.80;12.20;;;8.70;99.90;;;;;;9958553;29;20058;-93
2020/12/14 21:31:48;;;;;;;17.02;13.05;;;8.60;99.90;;;;;;9939474;29;20515;-93
2020/12/14 21:36:51;;;;;;;19.98;14.15;;;8.60;99.90;;;;;;9939340;29;20064;-93
2020/12/14 21:42:06;;;;;;;16.27;12.77;;;8.60;99.90;;;;;;9955762;29;20066;-93
2020/12/14 21:47:08;;;;;;;17.50;13.52;;;8.60;99.90;;;;;;9938774;29;20054;-93
2020/12/14 21:52:11;;;;;;;23.20;13.15;;;8.50;99.90;;;;;;9942734;29;20058;-93
2020/12/14 21:57:13;;;;;;;17.00;12.82;;;8.50;99.90;;;;;;9946787;29;20062;-93
2020/12/14 22:02:14;;;;;;;20.98;13.32;;;8.50;99.90;;;;;;9930794;29;20066;-93
2020/12/14 22:07:16;;;;;;;14.25;11.73;;;8.40;99.90;;;;;;9945656;29;20058;-94
2020/12/14 22:12:18;;;;;;;22.90;11.73;;;8.40;99.90;;;;;;9960178;29;20065;-93
2020/12/14 22:17:20;;;;;;;13.18;9.90;;;8.40;99.90;;;;;;9945311;29;20063;-92
2020/12/14 22:22:21;;;;;;;;;;;8.30;99.90;;;;;;9930780;29;20070;-92
2020/12/14 22:27:22;;;;;;;10.20;7.25;;;8.20;99.90;;;;;;9959953;29;19931;-93
2020/12/14 22:32:24;;;;;;;10.18;6.80;;;8.20;99.90;;;;;;9944644;29;20063;-93
2020/12/14 22:37:27;;;;;;;;;;;8.10;99.90;;;;;;9945227;29;20055;-94
2020/12/14 22:42:29;;;;;;;11.90;7.28;;;8.00;99.90;;;;;;9959231;29;19928;-93
2020/12/14 22:47:30;;;;;;;;;;;7.90;99.90;;;;;;9929334;29;20507;-93
2020/12/14 22:52:32;;;;;;;10.85;6.32;;;7.80;99.90;;;;;;9959236;29;19947;-93
2020/12/14 22:57:34;;;;;;;10.85;6.40;;;7.70;99.90;;;;;;9944585;29;20055;-92
2020/12/14 23:02:35;;;;;;;14.88;7.05;;;7.70;99.90;;;;;;9943804;29;20065;-93
2020/12/14 23:07:37;;;;;;;10.75;5.88;;;7.70;99.90;;;;;;9929025;29;20055;-93
2020/12/14 23:12:46;;;;;;;10.18;5.82;;;7.70;99.90;;;;;;9946103;29;20061;-92
2020/12/14 23:17:47;;;;;;;10.20;6.43;;;7.70;99.90;;;;;;9958083;29;20066;-94
2020/12/14 23:22:49;;;;;;;;;;;7.70;99.90;;;;;;9930412;29;20096;-93
2020/12/14 23:27:51;;;;;;;7.60;6.68;;;7.60;99.90;;;;;;9958186;29;20019;-93
2020/12/14 23:32:53;;;;;;;7.93;6.05;;;7.60;99.90;;;;;;9942783;29;20146;-93
2020/12/14 23:37:55;;;;;;;11.40;6.32;;;7.60;99.90;;;;;;9942473;29;20503;-93
2020/12/14 23:43:01;;;;;;;8.00;6.40;;;7.60;99.90;;;;;;9972976;29;20058;-94
2020/12/14 23:48:02;;;;;;;6.68;6.05;;;7.60;99.90;;;;;;9941908;29;20465;-93
2020/12/14 23:53:04;;;;;;;5.95;5.38;;;7.50;99.90;;;;;;9943526;29;20065;-93
2020/12/14 23:58:05;;;;;;;6.85;5.78;;;7.60;99.90;;;;;;9927776;29;20399;-93
